sensor_id;sensor_type;location;lat;lon;timestamp;pressure;altitude;pressure_sealevel;temperature;humidity
49645;BME280;36494;50.730;-1.932;2023-07-30T00:02:24;100556.35;;;16.63;100.00
49645;BME280;36494;50.730;-1.932;2023-07-30T00:04:49;100553.42;;;16.44;100.00
49645;BME280;36494;50.730;-1.932;2023-07-30T00:07:15;100558.52;;;16.51;100.00
49645;BME280;36494;50.730;-1.932;2023-07-30T00:09:40;100553.85;;;16.51;100.00
49645;BME280;36494;50.730;-1.932;2023-07-30T00:12:07;100555.71;;;16.49;100.00
49645;BME280;36494;50.730;-1.932;2023-07-30T00:14:31;100553.28;;;16.37;100.00
49645;BME280;36494;50.730;-1.932;2023-07-30T00:16:56;100544.93;;;16.46;100.00
49645;BME280;36494;50.730;-1.932;2023-07-30T00:19:22;100544.21;;;16.34;100.00
49645;BME280;36494;50.730;-1.932;2023-07-30T00:21:47;100543.36;;;16.43;100.00
49645;BME280;36494;50.730;-1.932;2023-07-30T00:24:12;100538.16;;;16.21;100.00
49645;BME280;36494;50.730;-1.932;2023-07-30T00:26:37;100539.08;;;16.31;100.00
49645;BME280;36494;50.730;-1.932;2023-07-30T00:29:02;100537.38;;;16.21;100.00
49645;BME280;36494;50.730;-1.932;2023-07-30T00:31:28;100541.85;;;16.22;100.00
49645;BME280;36494;50.730;-1.932;2023-07-30T00:33:53;100543.78;;;16.01;100.00
49645;BME280;36494;50.730;-1.932;2023-07-30T00:36:18;100544.65;;;16.10;100.00
49645;BME280;36494;50.730;-1.932;2023-07-30T00:38:43;100545.18;;;15.99;100.00
49645;BME280;36494;50.730;-1.932;2023-07-30T00:41:09;100545.72;;;16.12;100.00
49645;BME280;36494;50.730;-1.932;2023-07-30T00:43:35;100540.80;;;16.08;100.00
49645;BME280;36494;50.730;-1.932;2023-07-30T00:46:00;100547.47;;;16.12;100.00
49645;BME280;36494;50.730;-1.932;2023-07-30T00:48:26;100548.42;;;16.06;100.00
49645;BME280;36494;50.730;-1.932;2023-07-30T00:50:51;100547.35;;;16.04;100.00
49645;BME280;36494;50.730;-1.932;2023-07-30T00:53:18;100542.98;;;16.09;100.00
49645;BME280;36494;50.730;-1.932;2023-07-30T00:55:42;100546.34;;;15.95;100.00
49645;BME280;36494;50.730;-1.932;2023-07-30T00:58:09;100547.62;;;16.06;100.00
49645;BME280;36494;50.730;-1.932;2023-07-30T01:00:33;100548.46;;;16.05;100.00
49645;BME280;36494;50.730;-1.932;2023-07-30T01:02:59;100552.13;;;16.00;100.00
49645;BME280;36494;50.730;-1.932;2023-07-30T01:05:24;100554.96;;;15.99;100.00
49645;BME280;36494;50.730;-1.932;2023-07-30T01:07:50;100555.39;;;15.82;100.00
49645;BME280;36494;50.730;-1.932;2023-07-30T01:10:16;100558.79;;;15.89;100.00
49645;BME280;36494;50.730;-1.932;2023-07-30T01:12:41;100558.14;;;15.91;100.00
49645;BME280;36494;50.730;-1.932;2023-07-30T01:15:07;100557.18;;;15.94;100.00
49645;BME280;36494;50.730;-1.932;2023-07-30T01:17:31;100554.79;;;15.84;100.00
49645;BME280;36494;50.730;-1.932;2023-07-30T01:19:57;100561.84;;;15.90;100.00
49645;BME280;36494;50.730;-1.932;2023-07-30T01:22:22;100561.57;;;15.87;100.00
49645;BME280;36494;50.730;-1.932;2023-07-30T01:24:47;100561.08;;;15.86;100.00
49645;BME280;36494;50.730;-1.932;2023-07-30T01:27:23;100565.80;;;15.75;100.00
49645;BME280;36494;50.730;-1.932;2023-07-30T01:29:41;100571.74;;;15.78;100.00
49645;BME280;36494;50.730;-1.932;2023-07-30T01:32:07;100570.96;;;15.72;100.00
49645;BME280;36494;50.730;-1.932;2023-07-30T01:34:29;100570.88;;;15.72;100.00
49645;BME280;36494;50.730;-1.932;2023-07-30T01:36:54;100572.81;;;15.82;100.00
49645;BME280;36494;50.730;-1.932;2023-07-30T01:39:19;100572.81;;;15.75;100.00
49645;BME280;36494;50.730;-1.932;2023-07-30T01:41:44;100573.79;;;15.81;100.00
49645;BME280;36494;50.730;-1.932;2023-07-30T01:44:10;100587.58;;;15.76;100.00
49645;BME280;36494;50.730;-1.932;2023-07-30T01:46:35;100579.36;;;15.82;100.00
49645;BME280;36494;50.730;-1.932;2023-07-30T01:49:00;100577.23;;;15.76;100.00
49645;BME280;36494;50.730;-1.932;2023-07-30T01:51:25;100578.67;;;15.84;100.00
49645;BME280;36494;50.730;-1.932;2023-07-30T01:53:50;100577.54;;;15.77;100.00
49645;BME280;36494;50.730;-1.932;2023-07-30T01:56:16;100582.88;;;15.72;100.00
49645;BME280;36494;50.730;-1.932;2023-07-30T01:58:42;100584.05;;;15.84;100.00
49645;BME280;36494;50.730;-1.932;2023-07-30T02:01:07;100591.92;;;15.84;100.00
49645;BME280;36494;50.730;-1.932;2023-07-30T02:03:32;100595.90;;;15.83;100.00
49645;BME280;36494;50.730;-1.932;2023-07-30T02:05:57;100601.10;;;15.81;100.00
49645;BME280;36494;50.730;-1.932;2023-07-30T02:08:23;100599.14;;;15.84;100.00
49645;BME280;36494;50.730;-1.932;2023-07-30T02:10:54;100598.50;;;15.82;100.00
49645;BME280;36494;50.730;-1.932;2023-07-30T02:13:13;100598.24;;;15.78;100.00
49645;BME280;36494;50.730;-1.932;2023-07-30T02:15:40;100599.31;;;15.83;100.00
49645;BME280;36494;50.730;-1.932;2023-07-30T02:18:04;100596.62;;;15.81;100.00
49645;BME280;36494;50.730;-1.932;2023-07-30T02:20:29;100598.65;;;15.82;100.00
49645;BME280;36494;50.730;-1.932;2023-07-30T02:22:54;100597.23;;;15.78;100.00
49645;BME280;36494;50.730;-1.932;2023-07-30T02:25:19;100594.33;;;15.80;100.00
49645;BME280;36494;50.730;-1.932;2023-07-30T02:27:45;100593.57;;;15.81;100.00
49645;BME280;36494;50.730;-1.932;2023-07-30T02:30:10;100594.61;;;15.83;100.00
49645;BME280;36494;50.730;-1.932;2023-07-30T02:32:35;100597.74;;;15.77;100.00
49645;BME280;36494;50.730;-1.932;2023-07-30T02:35:01;100603.28;;;15.71;100.00
49645;BME280;36494;50.730;-1.932;2023-07-30T02:37:26;100600.97;;;15.71;100.00
49645;BME280;36494;50.730;-1.932;2023-07-30T02:39:52;100602.15;;;15.65;100.00
49645;BME280;36494;50.730;-1.932;2023-07-30T02:42:17;100599.17;;;15.65;100.00
49645;BME280;36494;50.730;-1.932;2023-07-30T02:44:43;100597.92;;;15.62;100.00
49645;BME280;36494;50.730;-1.932;2023-07-30T02:47:09;100603.41;;;15.58;100.00
49645;BME280;36494;50.730;-1.932;2023-07-30T02:49:34;100594.87;;;15.55;100.00
49645;BME280;36494;50.730;-1.932;2023-07-30T02:52:00;100593.00;;;15.58;100.00
49645;BME280;36494;50.730;-1.932;2023-07-30T02:54:25;100593.10;;;15.55;100.00
49645;BME280;36494;50.730;-1.932;2023-07-30T02:56:50;100594.84;;;15.52;100.00
49645;BME280;36494;50.730;-1.932;2023-07-30T02:59:16;100590.69;;;15.50;100.00
49645;BME280;36494;50.730;-1.932;2023-07-30T03:01:41;100593.18;;;15.49;100.00
49645;BME280;36494;50.730;-1.932;2023-07-30T03:04:06;100590.70;;;15.42;100.00
49645;BME280;36494;50.730;-1.932;2023-07-30T03:06:31;100590.46;;;15.41;100.00
49645;BME280;36494;50.730;-1.932;2023-07-30T03:08:57;100598.84;;;15.41;100.00
49645;BME280;36494;50.730;-1.932;2023-07-30T03:11:22;100604.46;;;15.40;100.00
49645;BME280;36494;50.730;-1.932;2023-07-30T03:13:47;100604.93;;;15.41;100.00
49645;BME280;36494;50.730;-1.932;2023-07-30T03:16:13;100605.30;;;15.42;100.00
49645;BME280;36494;50.730;-1.932;2023-07-30T03:18:38;100602.19;;;15.31;100.00
49645;BME280;36494;50.730;-1.932;2023-07-30T03:21:04;100601.71;;;15.30;100.00
49645;BME280;36494;50.730;-1.932;2023-07-30T03:23:30;100599.77;;;15.31;100.00
49645;BME280;36494;50.730;-1.932;2023-07-30T03:25:55;100602.48;;;15.27;100.00
49645;BME280;36494;50.730;-1.932;2023-07-30T03:28:21;100602.77;;;15.29;100.00
49645;BME280;36494;50.730;-1.932;2023-07-30T03:30:46;100604.93;;;15.32;100.00
49645;BME280;36494;50.730;-1.932;2023-07-30T03:33:11;100609.45;;;15.32;100.00
49645;BME280;36494;50.730;-1.932;2023-07-30T03:35:37;100610.43;;;15.32;100.00
49645;BME280;36494;50.730;-1.932;2023-07-30T03:38:03;100610.55;;;15.28;100.00
49645;BME280;36494;50.730;-1.932;2023-07-30T03:40:28;100612.43;;;15.25;100.00
49645;BME280;36494;50.730;-1.932;2023-07-30T03:42:53;100610.97;;;15.25;100.00
49645;BME280;36494;50.730;-1.932;2023-07-30T03:45:19;100615.58;;;15.26;100.00
49645;BME280;36494;50.730;-1.932;2023-07-30T03:47:44;100619.04;;;15.23;100.00
49645;BME280;36494;50.730;-1.932;2023-07-30T03:50:09;100618.01;;;15.24;100.00
49645;BME280;36494;50.730;-1.932;2023-07-30T03:52:34;100618.48;;;15.21;100.00
49645;BME280;36494;50.730;-1.932;2023-07-30T03:54:59;100618.56;;;15.19;100.00
49645;BME280;36494;50.730;-1.932;2023-07-30T03:57:25;100626.05;;;15.13;100.00
49645;BME280;36494;50.730;-1.932;2023-07-30T03:59:51;100632.23;;;15.05;100.00
49645;BME280;36494;50.730;-1.932;2023-07-30T04:02:16;100634.71;;;15.09;100.00
49645;BME280;36494;50.730;-1.932;2023-07-30T04:04:41;100640.98;;;15.11;100.00
49645;BME280;36494;50.730;-1.932;2023-07-30T04:07:06;100645.14;;;15.13;100.00
49645;BME280;36494;50.730;-1.932;2023-07-30T04:09:32;100643.96;;;15.10;100.00
49645;BME280;36494;50.730;-1.932;2023-07-30T04:11:57;100645.47;;;15.11;100.00
49645;BME280;36494;50.730;-1.932;2023-07-30T04:14:22;100649.16;;;15.10;100.00
49645;BME280;36494;50.730;-1.932;2023-07-30T04:16:47;100648.71;;;15.11;100.00
49645;BME280;36494;50.730;-1.932;2023-07-30T04:19:12;100650.87;;;15.11;100.00
49645;BME280;36494;50.730;-1.932;2023-07-30T04:21:38;100649.10;;;15.08;100.00
49645;BME280;36494;50.730;-1.932;2023-07-30T04:24:03;100650.70;;;15.10;100.00
49645;BME280;36494;50.730;-1.932;2023-07-30T04:26:28;100650.96;;;15.15;100.00
49645;BME280;36494;50.730;-1.932;2023-07-30T04:28:53;100652.56;;;15.14;100.00
49645;BME280;36494;50.730;-1.932;2023-07-30T04:31:19;100654.35;;;15.14;100.00
49645;BME280;36494;50.730;-1.932;2023-07-30T04:33:45;100656.45;;;15.18;100.00
49645;BME280;36494;50.730;-1.932;2023-07-30T04:36:10;100654.58;;;15.21;100.00
49645;BME280;36494;50.730;-1.932;2023-07-30T04:38:36;100658.77;;;15.16;100.00
49645;BME280;36494;50.730;-1.932;2023-07-30T04:41:01;100658.40;;;15.19;100.00
49645;BME280;36494;50.730;-1.932;2023-07-30T04:43:28;100655.69;;;15.24;100.00
49645;BME280;36494;50.730;-1.932;2023-07-30T04:45:53;100650.69;;;15.26;100.00
49645;BME280;36494;50.730;-1.932;2023-07-30T04:48:18;100652.09;;;15.27;100.00
49645;BME280;36494;50.730;-1.932;2023-07-30T04:50:44;100652.40;;;15.29;100.00
49645;BME280;36494;50.730;-1.932;2023-07-30T04:53:09;100660.06;;;15.29;100.00
49645;BME280;36494;50.730;-1.932;2023-07-30T04:55:35;100657.80;;;15.33;100.00
49645;BME280;36494;50.730;-1.932;2023-07-30T04:58:00;100658.69;;;15.31;100.00
49645;BME280;36494;50.730;-1.932;2023-07-30T05:00:25;100656.82;;;15.30;100.00
49645;BME280;36494;50.730;-1.932;2023-07-30T05:02:51;100664.67;;;15.28;100.00
49645;BME280;36494;50.730;-1.932;2023-07-30T05:05:16;100666.74;;;15.28;100.00
49645;BME280;36494;50.730;-1.932;2023-07-30T05:07:42;100668.99;;;15.28;100.00
49645;BME280;36494;50.730;-1.932;2023-07-30T05:10:08;100671.04;;;15.26;100.00
49645;BME280;36494;50.730;-1.932;2023-07-30T05:12:33;100670.39;;;15.32;100.00
49645;BME280;36494;50.730;-1.932;2023-07-30T05:14:58;100668.63;;;15.32;100.00
49645;BME280;36494;50.730;-1.932;2023-07-30T05:17:24;100669.16;;;15.34;100.00
49645;BME280;36494;50.730;-1.932;2023-07-30T05:19:49;100665.80;;;15.29;100.00
49645;BME280;36494;50.730;-1.932;2023-07-30T05:22:15;100665.84;;;15.33;100.00
49645;BME280;36494;50.730;-1.932;2023-07-30T05:24:41;100665.97;;;15.33;100.00
49645;BME280;36494;50.730;-1.932;2023-07-30T05:27:06;100661.10;;;15.36;100.00
49645;BME280;36494;50.730;-1.932;2023-07-30T05:29:31;100659.72;;;15.36;100.00
49645;BME280;36494;50.730;-1.932;2023-07-30T05:31:57;100663.12;;;15.37;100.00
49645;BME280;36494;50.730;-1.932;2023-07-30T05:34:22;100663.54;;;15.36;100.00
49645;BME280;36494;50.730;-1.932;2023-07-30T05:36:47;100660.47;;;15.35;100.00
49645;BME280;36494;50.730;-1.932;2023-07-30T05:39:12;100663.73;;;15.34;100.00
49645;BME280;36494;50.730;-1.932;2023-07-30T05:41:38;100662.34;;;15.39;100.00
49645;BME280;36494;50.730;-1.932;2023-07-30T05:44:03;100661.52;;;15.40;100.00
49645;BME280;36494;50.730;-1.932;2023-07-30T05:46:28;100662.18;;;15.38;100.00
49645;BME280;36494;50.730;-1.932;2023-07-30T05:48:54;100661.01;;;15.36;100.00
49645;BME280;36494;50.730;-1.932;2023-07-30T05:51:19;100666.75;;;15.42;100.00
49645;BME280;36494;50.730;-1.932;2023-07-30T05:53:44;100667.17;;;15.43;100.00
49645;BME280;36494;50.730;-1.932;2023-07-30T05:56:10;100673.92;;;15.44;100.00
49645;BME280;36494;50.730;-1.932;2023-07-30T05:58:35;100673.74;;;15.40;100.00
49645;BME280;36494;50.730;-1.932;2023-07-30T06:01:00;100663.83;;;15.39;100.00
49645;BME280;36494;50.730;-1.932;2023-07-30T06:03:25;100665.24;;;15.46;100.00
49645;BME280;36494;50.730;-1.932;2023-07-30T06:05:51;100668.34;;;15.48;100.00
49645;BME280;36494;50.730;-1.932;2023-07-30T06:08:16;100668.44;;;15.51;100.00
49645;BME280;36494;50.730;-1.932;2023-07-30T06:10:42;100673.88;;;15.52;100.00
49645;BME280;36494;50.730;-1.932;2023-07-30T06:13:07;100675.00;;;15.58;100.00
49645;BME280;36494;50.730;-1.932;2023-07-30T06:15:33;100679.14;;;15.60;100.00
49645;BME280;36494;50.730;-1.932;2023-07-30T06:17:58;100687.19;;;15.60;100.00
49645;BME280;36494;50.730;-1.932;2023-07-30T06:20:23;100688.84;;;15.65;100.00
49645;BME280;36494;50.730;-1.932;2023-07-30T06:22:49;100680.37;;;15.70;100.00
49645;BME280;36494;50.730;-1.932;2023-07-30T06:25:14;100691.80;;;15.76;100.00
49645;BME280;36494;50.730;-1.932;2023-07-30T06:27:39;100698.02;;;15.77;100.00
49645;BME280;36494;50.730;-1.932;2023-07-30T06:30:05;100700.17;;;15.82;100.00
49645;BME280;36494;50.730;-1.932;2023-07-30T06:32:30;100700.26;;;15.92;100.00
49645;BME280;36494;50.730;-1.932;2023-07-30T06:34:55;100694.68;;;16.03;100.00
49645;BME280;36494;50.730;-1.932;2023-07-30T06:37:21;100695.21;;;16.07;100.00
49645;BME280;36494;50.730;-1.932;2023-07-30T06:39:46;100696.58;;;16.08;100.00
49645;BME280;36494;50.730;-1.932;2023-07-30T06:42:11;100701.74;;;16.11;100.00
49645;BME280;36494;50.730;-1.932;2023-07-30T06:44:37;100698.73;;;16.14;100.00
49645;BME280;36494;50.730;-1.932;2023-07-30T06:47:03;100698.33;;;16.19;100.00
49645;BME280;36494;50.730;-1.932;2023-07-30T06:49:28;100700.40;;;16.14;100.00
49645;BME280;36494;50.730;-1.932;2023-07-30T06:51:53;100699.67;;;16.25;100.00
49645;BME280;36494;50.730;-1.932;2023-07-30T06:54:20;100696.05;;;16.22;100.00
49645;BME280;36494;50.730;-1.932;2023-07-30T06:56:44;100693.54;;;16.29;100.00
49645;BME280;36494;50.730;-1.932;2023-07-30T06:59:10;100690.10;;;16.36;100.00
49645;BME280;36494;50.730;-1.932;2023-07-30T07:01:35;100689.42;;;16.38;100.00
49645;BME280;36494;50.730;-1.932;2023-07-30T07:04:01;100687.78;;;16.43;100.00
49645;BME280;36494;50.730;-1.932;2023-07-30T07:06:27;100687.41;;;16.43;100.00
49645;BME280;36494;50.730;-1.932;2023-07-30T07:08:52;100701.44;;;16.47;100.00
49645;BME280;36494;50.730;-1.932;2023-07-30T07:11:18;100705.43;;;16.52;100.00
49645;BME280;36494;50.730;-1.932;2023-07-30T07:13:43;100702.82;;;16.57;100.00
49645;BME280;36494;50.730;-1.932;2023-07-30T07:16:09;100705.43;;;16.57;100.00
49645;BME280;36494;50.730;-1.932;2023-07-30T07:18:35;100707.07;;;16.62;100.00
49645;BME280;36494;50.730;-1.932;2023-07-30T07:21:00;100704.07;;;16.60;100.00
49645;BME280;36494;50.730;-1.932;2023-07-30T07:23:26;100707.30;;;16.63;100.00
49645;BME280;36494;50.730;-1.932;2023-07-30T07:25:52;100707.97;;;16.59;100.00
49645;BME280;36494;50.730;-1.932;2023-07-30T07:28:16;100705.90;;;16.58;100.00
49645;BME280;36494;50.730;-1.932;2023-07-30T07:30:42;100703.99;;;16.66;100.00
49645;BME280;36494;50.730;-1.932;2023-07-30T07:33:07;100703.75;;;16.69;100.00
49645;BME280;36494;50.730;-1.932;2023-07-30T07:35:33;100710.31;;;16.74;100.00
49645;BME280;36494;50.730;-1.932;2023-07-30T07:37:59;100711.15;;;16.70;100.00
49645;BME280;36494;50.730;-1.932;2023-07-30T07:40:25;100709.62;;;16.68;100.00
49645;BME280;36494;50.730;-1.932;2023-07-30T07:42:50;100710.71;;;16.66;100.00
49645;BME280;36494;50.730;-1.932;2023-07-30T07:45:16;100714.95;;;16.67;100.00
49645;BME280;36494;50.730;-1.932;2023-07-30T07:47:41;100717.28;;;16.70;100.00
49645;BME280;36494;50.730;-1.932;2023-07-30T07:50:07;100720.55;;;16.60;100.00
49645;BME280;36494;50.730;-1.932;2023-07-30T07:52:32;100734.72;;;16.39;100.00
49645;BME280;36494;50.730;-1.932;2023-07-30T07:54:57;100734.16;;;16.31;100.00
49645;BME280;36494;50.730;-1.932;2023-07-30T07:57:22;100737.93;;;16.35;100.00
49645;BME280;36494;50.730;-1.932;2023-07-30T07:59:48;100741.73;;;16.32;100.00
49645;BME280;36494;50.730;-1.932;2023-07-30T08:02:13;100738.84;;;16.13;100.00
49645;BME280;36494;50.730;-1.932;2023-07-30T08:04:38;100743.80;;;16.21;100.00
49645;BME280;36494;50.730;-1.932;2023-07-30T08:07:04;100738.38;;;16.28;100.00
49645;BME280;36494;50.730;-1.932;2023-07-30T08:09:29;100738.07;;;16.27;100.00
49645;BME280;36494;50.730;-1.932;2023-07-30T08:11:54;100739.35;;;16.24;100.00
49645;BME280;36494;50.730;-1.932;2023-07-30T08:14:19;100735.17;;;16.26;100.00
49645;BME280;36494;50.730;-1.932;2023-07-30T08:16:45;100733.21;;;16.23;100.00
49645;BME280;36494;50.730;-1.932;2023-07-30T08:19:10;100729.33;;;16.26;100.00
49645;BME280;36494;50.730;-1.932;2023-07-30T08:21:36;100728.86;;;16.24;100.00
49645;BME280;36494;50.730;-1.932;2023-07-30T08:24:02;100721.72;;;16.14;100.00
49645;BME280;36494;50.730;-1.932;2023-07-30T08:26:27;100724.53;;;16.19;100.00
49645;BME280;36494;50.730;-1.932;2023-07-30T08:28:52;100728.27;;;16.01;100.00
49645;BME280;36494;50.730;-1.932;2023-07-30T08:31:17;100732.15;;;16.16;100.00
49645;BME280;36494;50.730;-1.932;2023-07-30T08:33:43;100730.46;;;16.08;100.00
49645;BME280;36494;50.730;-1.932;2023-07-30T08:36:08;100737.61;;;15.82;100.00
49645;BME280;36494;50.730;-1.932;2023-07-30T08:38:33;100730.95;;;15.95;100.00
49645;BME280;36494;50.730;-1.932;2023-07-30T08:40:59;100731.21;;;16.00;100.00
49645;BME280;36494;50.730;-1.932;2023-07-30T08:43:24;100730.37;;;15.94;100.00
49645;BME280;36494;50.730;-1.932;2023-07-30T08:45:49;100727.00;;;15.91;100.00
49645;BME280;36494;50.730;-1.932;2023-07-30T08:48:14;100723.79;;;15.89;100.00
49645;BME280;36494;50.730;-1.932;2023-07-30T08:50:40;100731.85;;;15.72;100.00
49645;BME280;36494;50.730;-1.932;2023-07-30T08:53:07;100726.10;;;15.85;100.00
49645;BME280;36494;50.730;-1.932;2023-07-30T08:55:33;100723.45;;;15.83;100.00
49645;BME280;36494;50.730;-1.932;2023-07-30T08:57:57;100720.64;;;15.81;100.00
49645;BME280;36494;50.730;-1.932;2023-07-30T09:00:24;100718.21;;;15.90;100.00
49645;BME280;36494;50.730;-1.932;2023-07-30T09:02:49;100719.45;;;15.94;100.00
49645;BME280;36494;50.730;-1.932;2023-07-30T09:05:12;100721.76;;;15.84;100.00
49645;BME280;36494;50.730;-1.932;2023-07-30T09:07:37;100718.88;;;15.74;100.00
49645;BME280;36494;50.730;-1.932;2023-07-30T09:10:03;100714.40;;;15.64;100.00
49645;BME280;36494;50.730;-1.932;2023-07-30T09:12:30;100714.61;;;15.67;100.00
49645;BME280;36494;50.730;-1.932;2023-07-30T09:14:53;100712.88;;;15.64;100.00
49645;BME280;36494;50.730;-1.932;2023-07-30T09:17:19;100713.84;;;15.76;100.00
49645;BME280;36494;50.730;-1.932;2023-07-30T09:19:44;100709.24;;;15.65;100.00
49645;BME280;36494;50.730;-1.932;2023-07-30T09:22:10;100707.82;;;15.78;100.00
49645;BME280;36494;50.730;-1.932;2023-07-30T09:24:35;100707.97;;;15.75;100.00
49645;BME280;36494;50.730;-1.932;2023-07-30T09:27:02;100698.51;;;15.81;100.00
49645;BME280;36494;50.730;-1.932;2023-07-30T09:29:26;100698.20;;;15.83;100.00
49645;BME280;36494;50.730;-1.932;2023-07-30T09:31:53;100698.87;;;15.92;100.00
49645;BME280;36494;50.730;-1.932;2023-07-30T09:34:18;100692.24;;;15.91;100.00
49645;BME280;36494;50.730;-1.932;2023-07-30T09:36:44;100693.29;;;15.91;100.00
49645;BME280;36494;50.730;-1.932;2023-07-30T09:39:14;100687.54;;;15.98;100.00
49645;BME280;36494;50.730;-1.932;2023-07-30T09:41:33;100691.42;;;15.99;100.00
49645;BME280;36494;50.730;-1.932;2023-07-30T09:43:58;100693.12;;;16.07;100.00
49645;BME280;36494;50.730;-1.932;2023-07-30T09:46:29;100692.95;;;16.16;100.00
49645;BME280;36494;50.730;-1.932;2023-07-30T09:48:48;100688.88;;;16.27;100.00
49645;BME280;36494;50.730;-1.932;2023-07-30T09:51:14;100685.65;;;16.40;100.00
49645;BME280;36494;50.730;-1.932;2023-07-30T09:53:39;100689.30;;;16.49;100.00
49645;BME280;36494;50.730;-1.932;2023-07-30T09:56:05;100691.60;;;16.57;100.00
49645;BME280;36494;50.730;-1.932;2023-07-30T09:58:30;100690.09;;;16.58;100.00
49645;BME280;36494;50.730;-1.932;2023-07-30T10:00:56;100694.96;;;16.72;100.00
49645;BME280;36494;50.730;-1.932;2023-07-30T10:03:20;100697.23;;;16.78;100.00
49645;BME280;36494;50.730;-1.932;2023-07-30T10:05:47;100702.78;;;16.86;100.00
49645;BME280;36494;50.730;-1.932;2023-07-30T10:08:14;100702.70;;;16.88;100.00
49645;BME280;36494;50.730;-1.932;2023-07-30T10:10:36;100700.17;;;16.94;100.00
49645;BME280;36494;50.730;-1.932;2023-07-30T10:13:06;100698.81;;;17.00;100.00
49645;BME280;36494;50.730;-1.932;2023-07-30T10:15:28;100690.75;;;17.13;100.00
49645;BME280;36494;50.730;-1.932;2023-07-30T10:17:56;100698.46;;;17.05;100.00
49645;BME280;36494;50.730;-1.932;2023-07-30T10:20:21;100703.52;;;17.14;100.00
49645;BME280;36494;50.730;-1.932;2023-07-30T10:22:45;100705.86;;;17.24;100.00
49645;BME280;36494;50.730;-1.932;2023-07-30T10:25:12;100709.96;;;17.35;100.00
49645;BME280;36494;50.730;-1.932;2023-07-30T10:27:37;100707.62;;;17.29;100.00
49645;BME280;36494;50.730;-1.932;2023-07-30T10:30:10;100709.53;;;17.30;100.00
49645;BME280;36494;50.730;-1.932;2023-07-30T10:34:51;100713.03;;;17.46;100.00
49645;BME280;36494;50.730;-1.932;2023-07-30T10:37:17;100709.62;;;17.48;100.00
49645;BME280;36494;50.730;-1.932;2023-07-30T10:39:42;100714.00;;;17.52;100.00
49645;BME280;36494;50.730;-1.932;2023-07-30T10:42:07;100710.97;;;17.40;100.00
49645;BME280;36494;50.730;-1.932;2023-07-30T10:44:34;100716.95;;;17.43;100.00
49645;BME280;36494;50.730;-1.932;2023-07-30T10:46:59;100711.39;;;17.37;100.00
49645;BME280;36494;50.730;-1.932;2023-07-30T10:49:24;100714.23;;;17.42;100.00
49645;BME280;36494;50.730;-1.932;2023-07-30T10:51:51;100714.84;;;17.37;100.00
49645;BME280;36494;50.730;-1.932;2023-07-30T10:54:15;100711.82;;;17.30;100.00
49645;BME280;36494;50.730;-1.932;2023-07-30T10:56:40;100715.82;;;17.36;100.00
49645;BME280;36494;50.730;-1.932;2023-07-30T10:59:06;100711.07;;;17.37;100.00
49645;BME280;36494;50.730;-1.932;2023-07-30T11:01:31;100715.60;;;17.37;100.00
49645;BME280;36494;50.730;-1.932;2023-07-30T11:03:57;100723.86;;;17.37;100.00
49645;BME280;36494;50.730;-1.932;2023-07-30T11:06:22;100718.68;;;17.42;100.00
49645;BME280;36494;50.730;-1.932;2023-07-30T11:08:48;100722.46;;;17.52;100.00
49645;BME280;36494;50.730;-1.932;2023-07-30T11:11:13;100728.79;;;17.38;100.00
49645;BME280;36494;50.730;-1.932;2023-07-30T11:13:41;100728.31;;;17.32;100.00
49645;BME280;36494;50.730;-1.932;2023-07-30T11:16:05;100725.99;;;17.39;100.00
49645;BME280;36494;50.730;-1.932;2023-07-30T11:18:31;100723.41;;;17.41;100.00
49645;BME280;36494;50.730;-1.932;2023-07-30T11:21:04;100719.97;;;17.39;100.00
49645;BME280;36494;50.730;-1.932;2023-07-30T11:23:22;100716.11;;;17.39;100.00
49645;BME280;36494;50.730;-1.932;2023-07-30T11:25:47;100723.55;;;17.28;100.00
49645;BME280;36494;50.730;-1.932;2023-07-30T11:28:12;100720.24;;;17.33;100.00
49645;BME280;36494;50.730;-1.932;2023-07-30T11:30:38;100721.73;;;17.31;100.00
49645;BME280;36494;50.730;-1.932;2023-07-30T11:33:03;100717.53;;;17.28;100.00
49645;BME280;36494;50.730;-1.932;2023-07-30T11:35:29;100721.48;;;17.39;100.00
49645;BME280;36494;50.730;-1.932;2023-07-30T11:37:54;100720.81;;;17.35;100.00
49645;BME280;36494;50.730;-1.932;2023-07-30T11:40:21;100720.38;;;17.32;100.00
49645;BME280;36494;50.730;-1.932;2023-07-30T11:42:46;100729.29;;;17.36;100.00
49645;BME280;36494;50.730;-1.932;2023-07-30T11:45:17;100723.98;;;17.30;100.00
49645;BME280;36494;50.730;-1.932;2023-07-30T11:47:37;100725.43;;;17.14;100.00
49645;BME280;36494;50.730;-1.932;2023-07-30T11:50:04;100728.01;;;17.34;100.00
49645;BME280;36494;50.730;-1.932;2023-07-30T11:52:29;100728.30;;;17.28;100.00
49645;BME280;36494;50.730;-1.932;2023-07-30T11:55:00;100732.73;;;17.32;100.00
49645;BME280;36494;50.730;-1.932;2023-07-30T11:57:19;100726.72;;;17.38;100.00
49645;BME280;36494;50.730;-1.932;2023-07-30T11:59:46;100722.78;;;17.21;100.00
49645;BME280;36494;50.730;-1.932;2023-07-30T12:02:16;100723.93;;;17.29;100.00
49645;BME280;36494;50.730;-1.932;2023-07-30T12:04:44;100729.28;;;17.35;100.00
49645;BME280;36494;50.730;-1.932;2023-07-30T12:07:04;100730.91;;;17.34;100.00
49645;BME280;36494;50.730;-1.932;2023-07-30T12:09:27;100731.74;;;17.36;100.00
49645;BME280;36494;50.730;-1.932;2023-07-30T12:11:54;100728.89;;;17.28;100.00
49645;BME280;36494;50.730;-1.932;2023-07-30T12:14:21;100727.02;;;17.38;100.00
49645;BME280;36494;50.730;-1.932;2023-07-30T12:16:44;100730.77;;;17.41;100.00
49645;BME280;36494;50.730;-1.932;2023-07-30T12:19:10;100726.50;;;17.46;100.00
49645;BME280;36494;50.730;-1.932;2023-07-30T12:21:35;100720.04;;;17.53;100.00
49645;BME280;36494;50.730;-1.932;2023-07-30T12:24:01;100727.63;;;17.53;100.00